sensor_id;sensor_type;location;lat;lon;timestamp;pressure;altitude;pressure_sealevel;temperature;humidity
55191;BME280;41070;50.360;18.742;2023-03-03T00:01:47;98950.65;;;-1.12;81.43
55191;BME280;41070;50.360;18.742;2023-03-03T00:04:16;98950.48;;;-1.15;81.45
55191;BME280;41070;50.360;18.742;2023-03-03T00:06:46;98951.52;;;-1.18;81.62
55191;BME280;41070;50.360;18.742;2023-03-03T00:09:12;98947.57;;;-1.22;81.61
55191;BME280;41070;50.360;18.742;2023-03-03T00:11:38;98946.71;;;-1.24;81.79
55191;BME280;41070;50.360;18.742;2023-03-03T00:14:21;98946.81;;;-1.26;81.92
55191;BME280;41070;50.360;18.742;2023-03-03T00:16:50;98939.54;;;-1.30;81.52
55191;BME280;41070;50.360;18.742;2023-03-03T00:19:23;98939.83;;;-1.33;81.55
55191;BME280;41070;50.360;18.742;2023-03-03T00:21:57;98937.73;;;-1.37;81.67
55191;BME280;41070;50.360;18.742;2023-03-03T00:24:34;98935.62;;;-1.39;81.79
55191;BME280;41070;50.360;18.742;2023-03-03T00:27:28;98935.45;;;-1.41;81.90
55191;BME280;41070;50.360;18.742;2023-03-03T00:30:24;98936.48;;;-1.43;82.02
55191;BME280;41070;50.360;18.742;2023-03-03T00:32:52;98938.66;;;-1.47;81.51
55191;BME280;41070;50.360;18.742;2023-03-03T00:35:32;98936.30;;;-1.57;81.70
55191;BME280;41070;50.360;18.742;2023-03-03T00:38:09;98937.42;;;-1.61;81.98
55191;BME280;41070;50.360;18.742;2023-03-03T00:40:40;98939.67;;;-1.61;82.22
55191;BME280;41070;50.360;18.742;2023-03-03T00:45:50;98936.82;;;-1.67;82.57
55191;BME280;41070;50.360;18.742;2023-03-03T00:51:01;98941.66;;;-1.71;82.32
55191;BME280;41070;50.360;18.742;2023-03-03T00:53:51;98937.63;;;-1.79;82.85
55191;BME280;41070;50.360;18.742;2023-03-03T00:56:17;98931.62;;;-1.84;83.10
55191;BME280;41070;50.360;18.742;2023-03-03T00:58:44;98933.83;;;-1.85;82.84
55191;BME280;41070;50.360;18.742;2023-03-03T01:01:13;98933.40;;;-1.90;82.69
55191;BME280;41070;50.360;18.742;2023-03-03T01:03:40;98932.27;;;-1.95;82.91
55191;BME280;41070;50.360;18.742;2023-03-03T01:06:07;98932.38;;;-1.96;83.17
55191;BME280;41070;50.360;18.742;2023-03-03T01:08:43;98932.29;;;-1.99;83.27
55191;BME280;41070;50.360;18.742;2023-03-03T01:11:20;98929.56;;;-1.99;83.50
55191;BME280;41070;50.360;18.742;2023-03-03T01:14:05;98924.36;;;-1.93;83.83
55191;BME280;41070;50.360;18.742;2023-03-03T01:16:34;98920.40;;;-1.90;83.56
55191;BME280;41070;50.360;18.742;2023-03-03T01:19:10;98917.63;;;-1.88;83.48
55191;BME280;41070;50.360;18.742;2023-03-03T01:21:36;98915.23;;;-1.87;83.31
55191;BME280;41070;50.360;18.742;2023-03-03T01:24:10;98917.09;;;-1.89;83.10
55191;BME280;41070;50.360;18.742;2023-03-03T01:26:37;98914.85;;;-1.89;83.16
55191;BME280;41070;50.360;18.742;2023-03-03T01:29:03;98911.48;;;-1.89;83.29
55191;BME280;41070;50.360;18.742;2023-03-03T01:31:30;98908.96;;;-1.89;83.21
55191;BME280;41070;50.360;18.742;2023-03-03T01:33:58;98904.06;;;-1.92;83.20
55191;BME280;41070;50.360;18.742;2023-03-03T01:36:26;98901.42;;;-1.94;83.03
55191;BME280;41070;50.360;18.742;2023-03-03T01:39:02;98899.34;;;-1.99;83.09
55191;BME280;41070;50.360;18.742;2023-03-03T01:41:38;98893.58;;;-1.99;83.62
55191;BME280;41070;50.360;18.742;2023-03-03T01:44:05;98887.55;;;-2.00;83.63
55191;BME280;41070;50.360;18.742;2023-03-03T01:46:39;98886.30;;;-1.98;83.43
55191;BME280;41070;50.360;18.742;2023-03-03T01:50:16;98885.19;;;-2.00;83.29
55191;BME280;41070;50.360;18.742;2023-03-03T01:52:33;98885.77;;;-2.06;83.30
55191;BME280;41070;50.360;18.742;2023-03-03T01:55:21;98887.08;;;-2.08;83.64
55191;BME280;41070;50.360;18.742;2023-03-03T01:57:53;98887.52;;;-2.11;83.48
55191;BME280;41070;50.360;18.742;2023-03-03T02:00:21;98881.27;;;-2.20;83.86
55191;BME280;41070;50.360;18.742;2023-03-03T02:02:47;98883.50;;;-2.28;84.19
55191;BME280;41070;50.360;18.742;2023-03-03T02:05:15;98884.89;;;-2.33;84.34
55191;BME280;41070;50.360;18.742;2023-03-03T02:07:42;98889.30;;;-2.37;84.69
55191;BME280;41070;50.360;18.742;2023-03-03T02:10:16;98887.82;;;-2.40;85.23
55191;BME280;41070;50.360;18.742;2023-03-03T02:12:48;98887.52;;;-2.40;85.43
55191;BME280;41070;50.360;18.742;2023-03-03T02:17:46;98892.63;;;-2.36;85.80
55191;BME280;41070;50.360;18.742;2023-03-03T02:20:31;98889.95;;;-2.29;85.83
55191;BME280;41070;50.360;18.742;2023-03-03T02:23:29;98891.95;;;-2.21;85.63
55191;BME280;41070;50.360;18.742;2023-03-03T02:28:29;98898.06;;;-2.16;85.08
55191;BME280;41070;50.360;18.742;2023-03-03T02:30:57;98905.20;;;-2.17;84.93
55191;BME280;41070;50.360;18.742;2023-03-03T02:33:24;98905.23;;;-2.18;84.99
55191;BME280;41070;50.360;18.742;2023-03-03T02:35:51;98908.45;;;-2.18;85.16
55191;BME280;41070;50.360;18.742;2023-03-03T02:41:06;98907.16;;;-2.15;85.05
55191;BME280;41070;50.360;18.742;2023-03-03T02:44:13;98901.15;;;-2.14;84.97
55191;BME280;41070;50.360;18.742;2023-03-03T02:46:46;98901.16;;;-2.11;84.99
55191;BME280;41070;50.360;18.742;2023-03-03T02:49:17;98904.86;;;-2.06;84.88
55191;BME280;41070;50.360;18.742;2023-03-03T02:51:44;98904.50;;;-2.06;84.68
55191;BME280;41070;50.360;18.742;2023-03-03T02:54:12;98904.73;;;-2.09;84.54
55191;BME280;41070;50.360;18.742;2023-03-03T02:56:40;98902.46;;;-2.12;84.28
55191;BME280;41070;50.360;18.742;2023-03-03T02:59:07;98902.04;;;-2.13;84.40
55191;BME280;41070;50.360;18.742;2023-03-03T03:01:33;98899.10;;;-2.12;84.36
55191;BME280;41070;50.360;18.742;2023-03-03T03:04:10;98899.93;;;-2.13;84.20
55191;BME280;41070;50.360;18.742;2023-03-03T03:06:37;98904.00;;;-2.15;83.91
55191;BME280;41070;50.360;18.742;2023-03-03T03:09:05;98904.58;;;-2.25;83.36
55191;BME280;41070;50.360;18.742;2023-03-03T03:11:32;98903.10;;;-2.31;83.55
55191;BME280;41070;50.360;18.742;2023-03-03T03:14:01;98897.50;;;-2.36;83.92
55191;BME280;41070;50.360;18.742;2023-03-03T03:16:28;98894.05;;;-2.42;84.28
55191;BME280;41070;50.360;18.742;2023-03-03T03:18:57;98890.16;;;-2.48;84.50
55191;BME280;41070;50.360;18.742;2023-03-03T03:21:24;98890.63;;;-2.56;84.59
55191;BME280;41070;50.360;18.742;2023-03-03T03:23:50;98895.27;;;-2.62;84.77
55191;BME280;41070;50.360;18.742;2023-03-03T03:26:17;98890.37;;;-2.71;85.10
55191;BME280;41070;50.360;18.742;2023-03-03T03:28:49;98889.04;;;-2.79;85.54
55191;BME280;41070;50.360;18.742;2023-03-03T03:31:17;98881.78;;;-2.87;85.96
55191;BME280;41070;50.360;18.742;2023-03-03T03:33:45;98870.20;;;-2.93;86.12
55191;BME280;41070;50.360;18.742;2023-03-03T03:36:11;98868.21;;;-2.98;86.22
55191;BME280;41070;50.360;18.742;2023-03-03T03:38:37;98861.21;;;-3.01;86.24
55191;BME280;41070;50.360;18.742;2023-03-03T03:41:05;98862.37;;;-3.01;86.61
55191;BME280;41070;50.360;18.742;2023-03-03T03:43:32;98870.04;;;-2.99;86.88
55191;BME280;41070;50.360;18.742;2023-03-03T03:45:58;98875.86;;;-2.97;86.69
55191;BME280;41070;50.360;18.742;2023-03-03T03:48:25;98874.62;;;-2.91;87.15
55191;BME280;41070;50.360;18.742;2023-03-03T03:50:52;98874.48;;;-2.83;87.25
55191;BME280;41070;50.360;18.742;2023-03-03T03:53:18;98877.96;;;-2.76;86.83
55191;BME280;41070;50.360;18.742;2023-03-03T03:55:45;98881.29;;;-2.73;86.69
55191;BME280;41070;50.360;18.742;2023-03-03T03:58:25;98881.71;;;-2.72;86.48
55191;BME280;41070;50.360;18.742;2023-03-03T04:00:52;98884.67;;;-2.70;86.41
55191;BME280;41070;50.360;18.742;2023-03-03T04:03:18;98885.42;;;-2.68;86.22
55191;BME280;41070;50.360;18.742;2023-03-03T04:05:44;98886.48;;;-2.66;86.31
55191;BME280;41070;50.360;18.742;2023-03-03T04:08:11;98878.01;;;-2.66;86.15
55191;BME280;41070;50.360;18.742;2023-03-03T04:10:38;98884.52;;;-2.64;86.17
55191;BME280;41070;50.360;18.742;2023-03-03T04:13:04;98880.36;;;-2.62;86.18
55191;BME280;41070;50.360;18.742;2023-03-03T04:15:30;98883.17;;;-2.62;85.99
55191;BME280;41070;50.360;18.742;2023-03-03T04:17:57;98882.09;;;-2.66;85.55
55191;BME280;41070;50.360;18.742;2023-03-03T04:20:23;98880.59;;;-2.69;85.80
55191;BME280;41070;50.360;18.742;2023-03-03T04:22:49;98887.29;;;-2.71;85.78
55191;BME280;41070;50.360;18.742;2023-03-03T04:25:27;98887.41;;;-2.74;85.73
55191;BME280;41070;50.360;18.742;2023-03-03T04:27:55;98891.55;;;-2.75;86.05
55191;BME280;41070;50.360;18.742;2023-03-03T04:30:54;98892.45;;;-2.72;86.12
55191;BME280;41070;50.360;18.742;2023-03-03T04:33:20;98895.02;;;-2.67;86.09
55191;BME280;41070;50.360;18.742;2023-03-03T04:35:46;98890.84;;;-2.66;85.69
55191;BME280;41070;50.360;18.742;2023-03-03T04:38:13;98893.12;;;-2.69;85.32
55191;BME280;41070;50.360;18.742;2023-03-03T04:40:41;98895.68;;;-2.74;85.20
55191;BME280;41070;50.360;18.742;2023-03-03T04:43:27;98900.69;;;-2.83;85.17
55191;BME280;41070;50.360;18.742;2023-03-03T04:45:54;98900.52;;;-2.97;85.25
55191;BME280;41070;50.360;18.742;2023-03-03T04:48:20;98901.08;;;-3.09;85.59
55191;BME280;41070;50.360;18.742;2023-03-03T04:50:47;98904.36;;;-3.25;85.56
55191;BME280;41070;50.360;18.742;2023-03-03T04:53:14;98899.73;;;-3.44;85.59
55191;BME280;41070;50.360;18.742;2023-03-03T04:55:40;98896.61;;;-3.54;86.52
55191;BME280;41070;50.360;18.742;2023-03-03T04:58:07;98903.73;;;-3.56;86.43
55191;BME280;41070;50.360;18.742;2023-03-03T05:00:35;98908.60;;;-3.62;86.62
55191;BME280;41070;50.360;18.742;2023-03-03T05:03:03;98919.77;;;-3.70;86.53
55191;BME280;41070;50.360;18.742;2023-03-03T05:05:36;98921.27;;;-3.77;86.84
55191;BME280;41070;50.360;18.742;2023-03-03T05:08:02;98917.95;;;-3.81;87.10
55191;BME280;41070;50.360;18.742;2023-03-03T05:10:29;98921.04;;;-3.89;87.22
55191;BME280;41070;50.360;18.742;2023-03-03T05:12:55;98922.09;;;-3.95;87.13
55191;BME280;41070;50.360;18.742;2023-03-03T05:15:21;98926.38;;;-3.98;87.89
55191;BME280;41070;50.360;18.742;2023-03-03T05:17:52;98926.17;;;-4.06;88.02
55191;BME280;41070;50.360;18.742;2023-03-03T05:20:28;98928.13;;;-4.11;88.14
55191;BME280;41070;50.360;18.742;2023-03-03T05:23:19;98938.05;;;-4.19;88.51
55191;BME280;41070;50.360;18.742;2023-03-03T05:25:50;98936.43;;;-4.18;88.67
55191;BME280;41070;50.360;18.742;2023-03-03T05:28:16;98931.56;;;-4.22;89.04
55191;BME280;41070;50.360;18.742;2023-03-03T05:30:50;98936.34;;;-4.27;89.28
55191;BME280;41070;50.360;18.742;2023-03-03T05:33:21;98937.30;;;-4.28;89.42
55191;BME280;41070;50.360;18.742;2023-03-03T05:35:54;98938.38;;;-4.26;89.53
55191;BME280;41070;50.360;18.742;2023-03-03T05:38:27;98943.54;;;-4.18;89.86
55191;BME280;41070;50.360;18.742;2023-03-03T05:40:55;98949.02;;;-4.15;89.71
55191;BME280;41070;50.360;18.742;2023-03-03T05:43:24;98957.20;;;-4.10;89.51
55191;BME280;41070;50.360;18.742;2023-03-03T05:45:58;98964.11;;;-4.10;89.74
55191;BME280;41070;50.360;18.742;2023-03-03T05:48:42;98962.36;;;-4.08;89.32
55191;BME280;41070;50.360;18.742;2023-03-03T05:51:09;98964.48;;;-4.06;89.75
55191;BME280;41070;50.360;18.742;2023-03-03T05:53:37;98966.65;;;-4.02;90.12
55191;BME280;41070;50.360;18.742;2023-03-03T05:56:04;98977.38;;;-3.97;89.93
55191;BME280;41070;50.360;18.742;2023-03-03T05:58:32;98989.43;;;-3.95;89.78
55191;BME280;41070;50.360;18.742;2023-03-03T06:00:58;98993.48;;;-3.95;89.76
55191;BME280;41070;50.360;18.742;2023-03-03T06:03:53;98987.79;;;-3.94;89.57
55191;BME280;41070;50.360;18.742;2023-03-03T06:06:19;98981.98;;;-3.94;89.54
55191;BME280;41070;50.360;18.742;2023-03-03T06:12:24;98960.11;;;-3.84;90.20
55191;BME280;41070;50.360;18.742;2023-03-03T06:15:05;98973.23;;;-3.75;90.13
55191;BME280;41070;50.360;18.742;2023-03-03T06:17:40;98977.08;;;-3.66;90.10
55191;BME280;41070;50.360;18.742;2023-03-03T06:20:10;98984.70;;;-3.60;90.09
55191;BME280;41070;50.360;18.742;2023-03-03T06:22:37;98984.80;;;-3.53;89.92
55191;BME280;41070;50.360;18.742;2023-03-03T06:25:07;98996.46;;;-3.53;89.86
55191;BME280;41070;50.360;18.742;2023-03-03T06:27:42;99005.00;;;-3.52;89.81
55191;BME280;41070;50.360;18.742;2023-03-03T06:30:13;98999.21;;;-3.55;90.17
55191;BME280;41070;50.360;18.742;2023-03-03T06:32:45;98998.23;;;-3.58;89.83
55191;BME280;41070;50.360;18.742;2023-03-03T06:35:33;98991.90;;;-3.58;89.87
55191;BME280;41070;50.360;18.742;2023-03-03T06:38:09;98994.77;;;-3.57;89.84
55191;BME280;41070;50.360;18.742;2023-03-03T06:40:38;98991.02;;;-3.57;90.14
55191;BME280;41070;50.360;18.742;2023-03-03T06:43:04;98996.27;;;-3.55;90.08
55191;BME280;41070;50.360;18.742;2023-03-03T06:46:00;98992.32;;;-3.53;90.60
55191;BME280;41070;50.360;18.742;2023-03-03T06:48:28;98987.73;;;-3.49;90.65
55191;BME280;41070;50.360;18.742;2023-03-03T06:50:57;98993.52;;;-3.43;90.94
55191;BME280;41070;50.360;18.742;2023-03-03T06:53:32;99003.17;;;-3.42;91.09
55191;BME280;41070;50.360;18.742;2023-03-03T06:56:08;98999.14;;;-3.38;91.34
55191;BME280;41070;50.360;18.742;2023-03-03T06:58:35;98983.63;;;-3.30;91.55
55191;BME280;41070;50.360;18.742;2023-03-03T07:01:14;98973.79;;;-3.20;91.49
55191;BME280;41070;50.360;18.742;2023-03-03T07:12:52;98976.41;;;-2.55;91.00
55191;BME280;41070;50.360;18.742;2023-03-03T07:15:27;98982.13;;;-2.46;90.80
55191;BME280;41070;50.360;18.742;2023-03-03T07:18:31;98996.65;;;-2.44;90.27
55191;BME280;41070;50.360;18.742;2023-03-03T07:21:30;98994.81;;;-2.45;90.49
55191;BME280;41070;50.360;18.742;2023-03-03T07:24:24;99011.90;;;-2.44;90.28
55191;BME280;41070;50.360;18.742;2023-03-03T07:26:53;99008.95;;;-2.51;90.12
55191;BME280;41070;50.360;18.742;2023-03-03T07:29:24;99003.70;;;-2.53;90.14
55191;BME280;41070;50.360;18.742;2023-03-03T07:31:54;99001.49;;;-2.53;90.35
55191;BME280;41070;50.360;18.742;2023-03-03T07:34:49;99001.55;;;-2.53;90.46
55191;BME280;41070;50.360;18.742;2023-03-03T07:37:36;99001.34;;;-2.47;90.55
55191;BME280;41070;50.360;18.742;2023-03-03T07:40:38;98993.96;;;-2.41;90.40
55191;BME280;41070;50.360;18.742;2023-03-03T07:43:36;99014.13;;;-2.37;90.37
55191;BME280;41070;50.360;18.742;2023-03-03T07:46:34;99028.78;;;-2.40;90.51
55191;BME280;41070;50.360;18.742;2023-03-03T07:49:15;99027.64;;;-2.44;90.66
55191;BME280;41070;50.360;18.742;2023-03-03T07:51:45;99032.05;;;-2.48;90.81
55191;BME280;41070;50.360;18.742;2023-03-03T07:56:42;99022.27;;;-2.41;91.30
55191;BME280;41070;50.360;18.742;2023-03-03T07:59:24;99024.34;;;-2.33;91.16
55191;BME280;41070;50.360;18.742;2023-03-03T08:01:56;99020.27;;;-2.21;91.28
55191;BME280;41070;50.360;18.742;2023-03-03T08:04:48;99015.63;;;-2.13;91.33
55191;BME280;41070;50.360;18.742;2023-03-03T08:07:21;99019.09;;;-2.00;91.27
55191;BME280;41070;50.360;18.742;2023-03-03T08:09:58;99021.58;;;-1.92;90.96
55191;BME280;41070;50.360;18.742;2023-03-03T08:12:37;99013.59;;;-1.87;91.00
55191;BME280;41070;50.360;18.742;2023-03-03T08:15:30;99014.45;;;-1.79;90.95
55191;BME280;41070;50.360;18.742;2023-03-03T08:18:31;99017.00;;;-1.74;90.19
55191;BME280;41070;50.360;18.742;2023-03-03T08:21:12;99016.39;;;-1.71;90.52
55191;BME280;41070;50.360;18.742;2023-03-03T08:24:14;99020.04;;;-1.68;90.06
55191;BME280;41070;50.360;18.742;2023-03-03T08:26:40;99029.05;;;-1.70;89.92
55191;BME280;41070;50.360;18.742;2023-03-03T08:29:26;99038.16;;;-1.72;90.06
55191;BME280;41070;50.360;18.742;2023-03-03T08:31:53;99044.10;;;-1.77;90.26
55191;BME280;41070;50.360;18.742;2023-03-03T08:34:29;99049.45;;;-1.80;90.82
55191;BME280;41070;50.360;18.742;2023-03-03T08:36:57;99048.11;;;-1.82;91.04
55191;BME280;41070;50.360;18.742;2023-03-03T08:39:24;99041.17;;;-1.83;91.31
55191;BME280;41070;50.360;18.742;2023-03-03T08:41:50;99032.83;;;-1.84;91.55
55191;BME280;41070;50.360;18.742;2023-03-03T08:44:16;99024.54;;;-1.83;91.63
55191;BME280;41070;50.360;18.742;2023-03-03T08:46:46;99024.37;;;-1.80;91.65
55191;BME280;41070;50.360;18.742;2023-03-03T08:49:12;99023.77;;;-1.76;92.09
55191;BME280;41070;50.360;18.742;2023-03-03T08:51:53;99028.41;;;-1.72;92.20
55191;BME280;41070;50.360;18.742;2023-03-03T08:54:23;99014.46;;;-1.69;92.04
55191;BME280;41070;50.360;18.742;2023-03-03T08:56:51;99008.67;;;-1.66;91.97
55191;BME280;41070;50.360;18.742;2023-03-03T08:59:23;99018.62;;;-1.61;91.94
55191;BME280;41070;50.360;18.742;2023-03-03T09:01:50;99016.77;;;-1.56;91.73
55191;BME280;41070;50.360;18.742;2023-03-03T09:04:21;99020.46;;;-1.53;91.76
55191;BME280;41070;50.360;18.742;2023-03-03T09:06:51;99021.17;;;-1.50;91.57
55191;BME280;41070;50.360;18.742;2023-03-03T09:09:22;99021.48;;;-1.50;91.75
55191;BME280;41070;50.360;18.742;2023-03-03T09:11:56;99018.89;;;-1.47;91.93
55191;BME280;41070;50.360;18.742;2023-03-03T09:14:37;99021.63;;;-1.44;91.59
55191;BME280;41070;50.360;18.742;2023-03-03T09:28:48;99013.84;;;-1.31;91.86
55191;BME280;41070;50.360;18.742;2023-03-03T09:31:26;99009.03;;;-1.27;92.05
55191;BME280;41070;50.360;18.742;2023-03-03T09:33:55;99015.39;;;-1.25;91.61
55191;BME280;41070;50.360;18.742;2023-03-03T09:36:28;99018.27;;;-1.25;91.79
55191;BME280;41070;50.360;18.742;2023-03-03T09:38:58;99027.14;;;-1.27;91.48
55191;BME280;41070;50.360;18.742;2023-03-03T09:58:28;99021.21;;;-1.26;92.19
55191;BME280;41070;50.360;18.742;2023-03-03T10:04:22;99018.69;;;-1.18;91.94
55191;BME280;41070;50.360;18.742;2023-03-03T10:09:42;99035.39;;;-1.10;92.00
55191;BME280;41070;50.360;18.742;2023-03-03T10:12:30;99043.02;;;-1.10;91.96
55191;BME280;41070;50.360;18.742;2023-03-03T10:18:29;99052.23;;;-1.11;92.19
55191;BME280;41070;50.360;18.742;2023-03-03T10:21:02;99054.08;;;-1.13;92.10
55191;BME280;41070;50.360;18.742;2023-03-03T10:29:36;99051.09;;;-1.17;92.68
55191;BME280;41070;50.360;18.742;2023-03-03T10:32:34;99042.23;;;-1.14;92.52
55191;BME280;41070;50.360;18.742;2023-03-03T10:35:35;99047.94;;;-1.12;92.39
55191;BME280;41070;50.360;18.742;2023-03-03T10:38:13;99050.31;;;-1.09;92.43
55191;BME280;41070;50.360;18.742;2023-03-03T10:49:11;99055.90;;;-0.96;91.83
55191;BME280;41070;50.360;18.742;2023-03-03T11:00:27;99046.38;;;-1.06;91.50
55191;BME280;41070;50.360;18.742;2023-03-03T11:11:51;99040.80;;;-0.88;91.85
55191;BME280;41070;50.360;18.742;2023-03-03T11:14:42;99038.23;;;-0.88;91.40
55191;BME280;41070;50.360;18.742;2023-03-03T11:17:35;99038.09;;;-0.87;91.70
55191;BME280;41070;50.360;18.742;2023-03-03T11:20:30;99037.23;;;-0.87;91.29
55191;BME280;41070;50.360;18.742;2023-03-03T11:31:33;99031.57;;;-0.86;91.65
55191;BME280;41070;50.360;18.742;2023-03-03T11:36:51;99020.89;;;-0.77;91.44
55191;BME280;41070;50.360;18.742;2023-03-03T11:39:22;99022.43;;;-0.73;91.36
55191;BME280;41070;50.360;18.742;2023-03-03T11:42:21;99021.28;;;-0.71;91.19
55191;BME280;41070;50.360;18.742;2023-03-03T11:45:10;99025.95;;;-0.70;91.19
55191;BME280;41070;50.360;18.742;2023-03-03T11:48:15;99026.96;;;-0.67;91.33
55191;BME280;41070;50.360;18.742;2023-03-03T11:54:02;99033.59;;;-0.69;91.28
55191;BME280;41070;50.360;18.742;2023-03-03T11:56:46;99032.45;;;-0.64;91.07
55191;BME280;41070;50.360;18.742;2023-03-03T11:59:40;99030.67;;;-0.61;91.01
55191;BME280;41070;50.360;18.742;2023-03-03T12:05:08;99025.36;;;-0.44;91.13
55191;BME280;41070;50.360;18.742;2023-03-03T12:08:06;99022.27;;;-0.38;91.08
55191;BME280;41070;50.360;18.742;2023-03-03T12:10:56;99023.77;;;-0.29;90.71
55191;BME280;41070;50.360;18.742;2023-03-03T12:19:19;99015.66;;;-0.09;90.13
55191;BME280;41070;50.360;18.742;2023-03-03T12:29:41;99011.88;;;0.18;89.58
55191;BME280;41070;50.360;18.742;2023-03-03T12:33:31;99007.57;;;0.20;89.29
55191;BME280;41070;50.360;18.742;2023-03-03T12:37:33;99006.94;;;0.10;88.67
55191;BME280;41070;50.360;18.742;2023-03-03T12:40:24;99002.72;;;0.06;88.91
55191;BME280;41070;50.360;18.742;2023-03-03T12:43:20;98998.19;;;0.06;89.14
55191;BME280;41070;50.360;18.742;2023-03-03T12:46:51;99000.67;;;0.04;88.60
55191;BME280;41070;50.360;18.742;2023-03-03T12:49:11;99004.14;;;0.08;88.23
55191;BME280;41070;50.360;18.742;2023-03-03T12:52:27;98997.34;;;0.04;88.18
55191;BME280;41070;50.360;18.742;2023-03-03T13:07:31;98994.63;;;0.08;87.82
55191;BME280;41070;50.360;18.742;2023-03-03T13:14:25;98997.24;;;-0.01;88.09
55191;BME280;41070;50.360;18.742;2023-03-03T13:17:35;98992.41;;;0.04;87.92
55191;BME280;41070;50.360;18.742;2023-03-03T13:27:11;98988.45;;;-0.01;87.88
55191;BME280;41070;50.360;18.742;2023-03-03T13:30:38;98992.09;;;0.01;87.35
55191;BME280;41070;50.360;18.742;2023-03-03T13:33:35;98988.03;;;-0.02;87.47
55191;BME280;41070;50.360;18.742;2023-03-03T13:37:03;98990.61;;;0.01;87.84
55191;BME280;41070;50.360;18.742;2023-03-03T13:40:04;98989.58;;;0.05;87.26
55191;BME280;41070;50.360;18.742;2023-03-03T13:42:48;98983.15;;;0.06;87.07
55191;BME280;41070;50.360;18.742;2023-03-03T13:51:30;98983.09;;;0.10;87.20
55191;BME280;41070;50.360;18.742;2023-03-03T14:03:14;98980.41;;;0.12;86.36
55191;BME280;41070;50.360;18.742;2023-03-03T14:06:01;98985.67;;;0.09;86.87
55191;BME280;41070;50.360;18.742;2023-03-03T14:08:58;98986.94;;;0.11;86.82
55191;BME280;41070;50.360;18.742;2023-03-03T14:11:44;98985.09;;;0.15;86.71
55191;BME280;41070;50.360;18.742;2023-03-03T14:14:32;98985.36;;;0.20;86.82
55191;BME280;41070;50.360;18.742;2023-03-03T14:20:52;98980.63;;;0.11;86.35
55191;BME280;41070;50.360;18.742;2023-03-03T14:24:17;98981.98;;;0.08;86.40
55191;BME280;41070;50.360;18.742;2023-03-03T14:26:51;98980.14;;;0.05;86.45
55191;BME280;41070;50.360;18.742;2023-03-03T14:29:46;98980.51;;;-0.00;86.12
55191;BME280;41070;50.360;18.742;2023-03-03T14:32:40;98980.09;;;-0.05;86.71
55191;BME280;41070;50.360;18.742;2023-03-03T14:35:29;98980.08;;;-0.12;86.32
55191;BME280;41070;50.360;18.742;2023-03-03T14:38:12;98977.82;;;-0.20;86.50
55191;BME280;41070;50.360;18.742;2023-03-03T14:41:14;98970.02;;;-0.31;86.63
55191;BME280;41070;50.360;18.742;2023-03-03T14:44:00;98968.20;;;-0.39;86.51
55191;BME280;41070;50.360;18.742;2023-03-03T14:46:34;98968.58;;;-0.44;86.99
55191;BME280;41070;50.360;18.742;2023-03-03T14:49:33;98966.77;;;-0.45;87.00
55191;BME280;41070;50.360;18.742;2023-03-03T14:55:39;98973.52;;;-0.47;87.33
55191;BME280;41070;50.360;18.742;2023-03-03T14:58:42;98979.13;;;-0.47;87.43
55191;BME280;41070;50.360;18.742;2023-03-03T15:01:56;98967.89;;;-0.46;87.60
55191;BME280;41070;50.360;18.742;2023-03-03T15:11:19;98951.73;;;-0.52;87.66
55191;BME280;41070;50.360;18.742;2023-03-03T15:14:44;98953.04;;;-0.54;87.91
55191;BME280;41070;50.360;18.742;2023-03-03T15:26:23;98956.41;;;-0.54;87.92
55191;BME280;41070;50.360;18.742;2023-03-03T15:35:44;98954.09;;;-0.57;88.08
55191;BME280;41070;50.360;18.742;2023-03-03T15:40:34;98945.05;;;-0.53;88.40
55191;BME280;41070;50.360;18.742;2023-03-03T15:43:42;98947.84;;;-0.49;88.65
55191;BME280;41070;50.360;18.742;2023-03-03T15:46:38;98948.74;;;-0.48;88.81
55191;BME280;41070;50.360;18.742;2023-03-03T15:52:23;98946.89;;;-0.50;88.83
55191;BME280;41070;50.360;18.742;2023-03-03T15:58:14;98951.02;;;-0.60;88.80
55191;BME280;41070;50.360;18.742;2023-03-03T16:13:48;98961.98;;;-0.66;89.27
55191;BME280;41070;50.360;18.742;2023-03-03T16:16:53;98961.73;;;-0.68;89.17
55191;BME280;41070;50.360;18.742;2023-03-03T16:27:45;98963.29;;;-0.76;89.41
55191;BME280;41070;50.360;18.742;2023-03-03T16:31:33;98962.82;;;-0.74;89.58
55191;BME280;41070;50.360;18.742;2023-03-03T16:37:03;98953.05;;;-0.76;89.73
55191;BME280;41070;50.360;18.742;2023-03-03T16:40:19;98957.56;;;-0.73;89.38
55191;BME280;41070;50.360;18.742;2023-03-03T16:47:14;98956.44;;;-0.81;89.51
55191;BME280;41070;50.360;18.742;2023-03-03T16:56:23;98967.35;;;-0.86;90.07
55191;BME280;41070;50.360;18.742;2023-03-03T16:59:12;98970.08;;;-0.88;89.66
55191;BME280;41070;50.360;18.742;2023-03-03T17:05:05;98974.22;;;-0.92;90.10
55191;BME280;41070;50.360;18.742;2023-03-03T17:10:54;98969.63;;;-0.98;90.03
55191;BME280;41070;50.360;18.742;2023-03-03T17:16:52;98985.29;;;-0.95;90.38
55191;BME280;41070;50.360;18.742;2023-03-03T17:20:04;98982.67;;;-0.93;89.98
55191;BME280;41070;50.360;18.742;2023-03-03T17:29:27;98985.08;;;-0.84;90.39
55191;BME280;41070;50.360;18.742;2023-03-03T17:32:24;98983.89;;;-0.80;90.17
55191;BME280;41070;50.360;18.742;2023-03-03T17:35:21;98984.68;;;-0.77;90.10
55191;BME280;41070;50.360;18.742;2023-03-03T17:38:05;98984.77;;;-0.76;90.27
55191;BME280;41070;50.360;18.742;2023-03-03T17:41:01;98980.05;;;-0.73;90.31
55191;BME280;41070;50.360;18.742;2023-03-03T17:46:49;98983.63;;;-0.78;90.12
55191;BME280;41070;50.360;18.742;2023-03-03T17:52:13;98984.21;;;-0.87;90.37
55191;BME280;41070;50.360;18.742;2023-03-03T17:55:13;98985.05;;;-0.91;90.76
55191;BME280;41070;50.360;18.742;2023-03-03T17:58:13;98981.23;;;-0.97;90.62
55191;BME280;41070;50.360;18.742;2023-03-03T18:01:19;98980.37;;;-1.02;91.36
55191;BME280;41070;50.360;18.742;2023-03-03T18:12:29;98979.23;;;-1.10;91.42
55191;BME280;41070;50.360;18.742;2023-03-03T18:20:53;98990.00;;;-1.10;91.77
55191;BME280;41070;50.360;18.742;2023-03-03T18:23:32;98988.38;;;-1.08;91.36
55191;BME280;41070;50.360;18.742;2023-03-03T18:26:41;98989.59;;;-1.10;91.19
55191;BME280;41070;50.360;18.742;2023-03-03T18:29:26;98989.89;;;-1.11;91.53